Time;durP1;ratioP1;P1;durP2;ratioP2;P2;SDS_P1;SDS_P2;PMS_P1;PMS_P2;Temp;Humidity;BMP_temperature;BMP_pressure;BME280_temperature;BME280_humidity;BME280_pressure;Samples;Min_cycle;Max_cycle;Signal;HPM_P1;HPM_P2
2023/03/08 00:01:02;;;;;;;12.77;6.00;;;5.10;99.90;;;;;;4996038;28;20042;-81
2023/03/08 00:03:28;;;;;;;12.05;5.50;;;5.10;99.90;;;;;;4998645;28;20049;-84
2023/03/08 00:05:54;;;;;;;11.33;5.87;;;5.20;99.90;;;;;;4985506;28;20871;-82
2023/03/08 00:08:20;;;;;;;11.52;5.63;;;5.10;99.90;;;;;;4999335;28;20029;-85
2023/03/08 00:10:46;;;;;;;11.55;5.72;;;5.10;99.90;;;;;;4976893;28;20029;-81
2023/03/08 00:13:12;;;;;;;11.50;5.57;;;5.10;99.90;;;;;;5008717;28;20033;-82
2023/03/08 00:15:38;;;;;;;12.33;5.97;;;5.10;99.90;;;;;;4987985;28;20128;-81
2023/03/08 00:18:06;;;;;;;12.02;5.60;;;5.10;99.90;;;;;;4984353;28;20083;-80
2023/03/08 00:20:33;;;;;;;12.88;6.40;;;5.20;99.90;;;;;;4965610;28;20025;-85
2023/03/08 00:22:58;;;;;;;12.97;6.43;;;5.20;99.90;;;;;;4973721;28;20091;-82
2023/03/08 00:25:25;;;;;;;13.15;6.22;;;5.20;99.90;;;;;;4975730;28;20450;-84
2023/03/08 00:27:50;;;;;;;12.10;5.68;;;5.20;99.90;;;;;;5012340;28;20065;-80
2023/03/08 00:30:16;;;;;;;10.33;5.27;;;5.20;99.90;;;;;;4976320;28;20465;-81
2023/03/08 00:32:42;;;;;;;12.00;5.78;;;5.20;99.90;;;;;;4982412;28;20585;-81
2023/03/08 00:35:08;;;;;;;12.90;5.97;;;5.20;99.90;;;;;;4977763;28;20475;-83
2023/03/08 00:37:34;;;;;;;11.27;5.53;;;5.20;99.90;;;;;;4954765;28;20076;-84
2023/03/08 00:40:00;;;;;;;11.77;5.72;;;5.20;99.90;;;;;;4989664;28;20071;-82
2023/03/08 00:42:26;;;;;;;12.13;5.82;;;5.20;99.90;;;;;;4993461;28;20045;-85
2023/03/08 00:44:51;;;;;;;11.07;5.40;;;5.20;99.90;;;;;;4978299;28;20048;-81
2023/03/08 00:47:17;;;;;;;12.05;5.63;;;5.20;99.90;;;;;;5001581;28;20088;-82
2023/03/08 00:49:43;;;;;;;12.13;5.33;;;5.20;99.90;;;;;;4978269;28;20352;-82
2023/03/08 00:52:09;;;;;;;11.00;5.40;;;5.20;99.90;;;;;;5000357;28;20025;-81
2023/03/08 00:54:35;;;;;;;11.20;5.40;;;5.20;99.90;;;;;;4958488;28;20498;-84
2023/03/08 00:57:01;;;;;;;11.40;5.50;;;5.30;99.90;;;;;;4985623;28;20013;-81
2023/03/08 00:59:27;;;;;;;11.97;5.60;;;5.30;99.90;;;;;;5000260;28;20859;-84
2023/03/08 01:01:53;;;;;;;11.60;5.32;;;5.30;99.90;;;;;;4995652;28;20029;-81
2023/03/08 01:04:19;;;;;;;11.40;5.20;;;5.30;99.90;;;;;;4971891;28;20125;-83
2023/03/08 01:06:45;;;;;;;11.13;5.10;;;5.30;99.90;;;;;;4989204;28;20040;-81
2023/03/08 01:09:11;;;;;;;12.25;5.50;;;5.20;99.90;;;;;;4979041;28;20066;-80
2023/03/08 01:11:37;;;;;;;10.60;5.18;;;5.30;99.90;;;;;;4975805;28;20022;-81
2023/03/08 01:14:04;;;;;;;10.43;5.00;;;5.30;99.90;;;;;;4989098;28;20032;-81
2023/03/08 01:16:32;;;;;;;10.23;4.77;;;5.30;99.90;;;;;;4993236;28;20111;-84
2023/03/08 01:18:59;;;;;;;11.38;5.50;;;5.30;99.90;;;;;;4970732;28;20026;-82
2023/03/08 01:21:26;;;;;;;13.40;5.35;;;5.30;99.90;;;;;;4992097;28;20099;-84
2023/03/08 01:23:52;;;;;;;12.27;5.25;;;5.30;99.90;;;;;;4999058;28;20129;-82
2023/03/08 01:26:21;;;;;;;11.20;4.80;;;5.20;99.90;;;;;;4978286;28;20044;-84
2023/03/08 01:28:48;;;;;;;9.68;4.63;;;5.30;99.90;;;;;;5011001;28;20045;-82
2023/03/08 01:31:20;;;;;;;10.80;5.20;;;5.20;99.90;;;;;;4982692;28;20044;-81
2023/03/08 01:33:47;;;;;;;10.77;5.15;;;5.20;99.90;;;;;;5008529;28;20229;-81
2023/03/08 01:36:15;;;;;;;11.75;5.40;;;5.20;99.90;;;;;;4965456;28;20021;-80
2023/03/08 01:38:42;;;;;;;10.33;4.93;;;5.20;99.90;;;;;;4995451;28;20018;-82
2023/03/08 01:41:23;;;;;;;10.75;5.20;;;5.20;99.90;;;;;;4963681;28;20030;-80
2023/03/08 01:43:50;;;;;;;10.52;5.05;;;5.20;99.90;;;;;;4993604;28;20260;-82
2023/03/08 01:46:21;;;;;;;10.15;4.78;;;5.20;99.90;;;;;;4995658;28;20033;-81
2023/03/08 01:49:02;;;;;;;11.02;4.75;;;5.20;99.90;;;;;;4973231;28;20122;-81
2023/03/08 01:51:49;;;;;;;10.03;4.70;;;5.20;99.90;;;;;;4987527;28;20028;-85
2023/03/08 01:54:32;;;;;;;9.98;4.88;;;5.20;99.90;;;;;;4982591;28;20033;-81
2023/03/08 01:57:02;;;;;;;9.95;4.90;;;5.20;99.90;;;;;;4976939;28;20018;-81
2023/03/08 01:59:31;;;;;;;12.80;5.50;;;5.20;99.90;;;;;;4993541;28;20025;-84
2023/03/08 02:01:58;;;;;;;11.27;5.15;;;5.20;99.90;;;;;;5011849;28;20013;-81
2023/03/08 02:04:25;;;;;;;11.23;5.37;;;5.20;99.90;;;;;;4989115;28;20025;-84
2023/03/08 02:06:51;;;;;;;9.43;4.88;;;5.10;99.90;;;;;;4966369;28;20198;-81
2023/03/08 02:09:17;;;;;;;10.50;5.03;;;5.10;99.90;;;;;;4987615;28;20068;-82
2023/03/08 02:11:43;;;;;;;9.43;4.55;;;5.10;99.90;;;;;;4987714;28;20264;-84
2023/03/08 02:14:09;;;;;;;9.52;4.45;;;5.10;99.90;;;;;;4982773;28;20025;-81
2023/03/08 02:16:36;;;;;;;12.03;5.70;;;5.20;99.90;;;;;;4990077;28;20021;-85
2023/03/08 02:19:09;;;;;;;11.45;5.20;;;5.20;99.90;;;;;;5011898;28;20038;-79
2023/03/08 02:21:35;;;;;;;9.98;4.70;;;5.10;99.90;;;;;;4984479;28;20087;-84
2023/03/08 02:24:06;;;;;;;10.75;5.25;;;5.20;99.90;;;;;;4983995;28;20025;-82
2023/03/08 02:26:35;;;;;;;11.50;5.32;;;5.10;99.90;;;;;;4974160;28;20115;-84
2023/03/08 02:29:01;;;;;;;11.27;5.03;;;5.10;99.90;;;;;;5013650;28;20082;-82
2023/03/08 02:31:27;;;;;;;11.15;5.05;;;5.10;99.90;;;;;;5010307;28;20033;-85
2023/03/08 02:33:52;;;;;;;10.35;4.78;;;5.10;99.90;;;;;;4983365;28;20025;-80
2023/03/08 02:36:18;;;;;;;10.33;4.87;;;5.20;99.90;;;;;;4979941;28;20021;-85
2023/03/08 02:38:44;;;;;;;10.52;5.03;;;5.20;99.90;;;;;;4984559;28;20580;-81
2023/03/08 02:41:09;;;;;;;13.10;5.77;;;5.10;99.90;;;;;;5007396;28;20021;-82
2023/03/08 02:43:35;;;;;;;11.68;5.00;;;5.10;99.90;;;;;;4996839;28;20064;-83
2023/03/08 02:46:01;;;;;;;11.60;5.23;;;5.20;99.90;;;;;;4982016;28;20025;-81
2023/03/08 02:48:27;;;;;;;10.75;5.22;;;5.10;99.90;;;;;;4994220;28;20055;-84
2023/03/08 02:50:53;;;;;;;10.73;4.95;;;5.10;99.90;;;;;;5010743;28;20608;-82
2023/03/08 02:53:19;;;;;;;10.47;4.90;;;5.10;99.90;;;;;;4975030;28;20248;-85
2023/03/08 02:55:44;;;;;;;11.27;5.05;;;5.20;99.90;;;;;;4994375;28;20757;-82
2023/03/08 02:58:10;;;;;;;10.50;4.87;;;5.10;99.90;;;;;;4967555;28;20075;-81
2023/03/08 03:00:37;;;;;;;10.82;4.93;;;5.10;99.90;;;;;;4994978;28;20632;-86
2023/03/08 03:03:03;;;;;;;8.70;4.00;;;5.10;99.90;;;;;;4996030;28;20045;-82
2023/03/08 03:05:29;;;;;;;11.18;5.13;;;5.20;99.90;;;;;;5008194;28;20025;-85
2023/03/08 03:07:57;;;;;;;9.30;4.40;;;5.20;99.90;;;;;;4989718;28;20910;-82
2023/03/08 03:10:23;;;;;;;9.45;4.45;;;5.10;99.90;;;;;;4990555;28;20036;-85
2023/03/08 03:12:49;;;;;;;10.17;4.27;;;5.10;99.90;;;;;;4976071;28;20232;-83
2023/03/08 03:15:15;;;;;;;9.73;4.43;;;5.10;99.90;;;;;;4998766;28;20087;-83
2023/03/08 03:17:41;;;;;;;11.15;4.45;;;5.10;99.90;;;;;;4975307;28;20275;-82
2023/03/08 03:20:08;;;;;;;9.47;4.67;;;5.10;99.90;;;;;;4995404;28;21053;-84
2023/03/08 03:22:35;;;;;;;8.85;4.25;;;5.00;99.90;;;;;;4995654;28;20033;-87
2023/03/08 03:25:01;;;;;;;10.75;5.18;;;5.00;99.90;;;;;;5002641;28;20029;-81
2023/03/08 03:27:27;;;;;;;9.97;4.60;;;5.00;99.90;;;;;;4991238;28;20045;-86
2023/03/08 03:29:52;;;;;;;9.88;4.60;;;5.00;99.90;;;;;;4985738;28;20060;-87
2023/03/08 03:32:18;;;;;;;10.10;4.30;;;5.00;99.90;;;;;;4974543;28;20503;-83
2023/03/08 03:34:44;;;;;;;10.13;4.40;;;5.00;99.90;;;;;;4994085;28;20029;-87
2023/03/08 03:37:09;;;;;;;11.57;5.23;;;4.90;99.90;;;;;;4990696;28;20278;-83
2023/03/08 03:39:37;;;;;;;9.57;4.60;;;4.90;99.90;;;;;;4973376;28;20803;-82
2023/03/08 03:42:05;;;;;;;9.80;4.65;;;4.90;99.90;;;;;;4975833;28;20277;-82
2023/03/08 03:44:31;;;;;;;10.85;4.80;;;4.90;99.90;;;;;;4973607;28;20066;-84
2023/03/08 03:46:57;;;;;;;10.07;4.47;;;4.90;99.90;;;;;;4975351;28;20034;-87
2023/03/08 03:49:22;;;;;;;9.85;4.35;;;4.80;99.90;;;;;;5000364;28;20156;-83
2023/03/08 03:51:48;;;;;;;9.87;4.20;;;4.80;99.90;;;;;;4995688;28;20033;-87
2023/03/08 03:54:14;;;;;;;9.80;4.20;;;4.80;99.90;;;;;;4990898;28;20417;-84
2023/03/08 03:56:40;;;;;;;9.50;3.97;;;4.70;99.90;;;;;;4987048;28;20107;-82
2023/03/08 03:59:06;;;;;;;9.38;3.90;;;4.70;99.90;;;;;;4967197;28;20485;-82
2023/03/08 04:01:32;;;;;;;8.75;3.53;;;4.70;99.90;;;;;;4995958;28;20086;-82
2023/03/08 04:03:58;;;;;;;7.22;3.35;;;4.60;99.90;;;;;;4989649;28;20127;-86
2023/03/08 04:06:26;;;;;;;7.30;3.50;;;4.60;99.90;;;;;;4992435;28;20044;-85
2023/03/08 04:08:54;;;;;;;8.00;3.33;;;4.60;99.90;;;;;;4980951;28;20234;-87
2023/03/08 04:11:22;;;;;;;8.15;3.35;;;4.50;99.90;;;;;;4999984;28;20238;-84
2023/03/08 04:13:48;;;;;;;7.18;3.13;;;4.50;99.90;;;;;;4986721;28;20040;-87
2023/03/08 04:16:22;;;;;;;7.30;3.08;;;4.50;99.90;;;;;;4995331;28;20323;-83
2023/03/08 04:18:54;;;;;;;4.93;2.50;;;4.50;99.90;;;;;;4995157;28;20021;-87
2023/03/08 04:21:20;;;;;;;7.00;3.38;;;4.40;99.90;;;;;;4994218;28;20582;-85
2023/03/08 04:23:46;;;;;;;7.10;3.08;;;4.40;99.90;;;;;;4983851;28;20072;-86
2023/03/08 04:26:12;;;;;;;6.68;2.88;;;4.40;99.90;;;;;;4971660;28;20550;-83
2023/03/08 04:28:38;;;;;;;6.47;2.95;;;4.30;99.90;;;;;;5003756;28;20039;-84
2023/03/08 04:31:31;;;;;;;7.03;2.70;;;4.30;99.90;;;;;;4969673;28;20041;-83
2023/03/08 04:33:59;;;;;;;6.45;3.22;;;4.20;99.90;;;;;;4976341;28;20635;-87
2023/03/08 04:36:25;;;;;;;6.70;3.05;;;4.20;99.90;;;;;;5024182;28;20556;-81
2023/03/08 04:38:51;;;;;;;7.43;3.22;;;4.20;99.90;;;;;;5001831;28;20076;-86
2023/03/08 04:41:17;;;;;;;4.35;1.90;;;4.20;99.90;;;;;;4991971;28;20035;-84
2023/03/08 04:43:46;;;;;;;5.83;2.43;;;4.10;99.90;;;;;;4976175;28;20022;-86
2023/03/08 04:46:13;;;;;;;6.53;2.75;;;4.10;99.90;;;;;;4959244;28;20043;-82
2023/03/08 04:48:39;;;;;;;5.55;2.67;;;4.00;99.90;;;;;;5013014;28;20032;-86
2023/03/08 04:51:06;;;;;;;5.68;2.58;;;4.00;99.90;;;;;;4980735;28;20240;-86
2023/03/08 04:53:33;;;;;;;5.40;2.53;;;4.00;99.90;;;;;;4993910;28;20076;-85
2023/03/08 04:55:59;;;;;;;4.87;2.23;;;4.00;99.90;;;;;;4979957;28;20439;-83
2023/03/08 04:58:26;;;;;;;5.65;2.80;;;3.90;99.90;;;;;;4985654;28;20044;-84
2023/03/08 05:00:52;;;;;;;7.03;3.08;;;3.90;99.90;;;;;;5000558;28;20326;-84
2023/03/08 05:03:18;;;;;;;5.28;2.40;;;3.90;99.90;;;;;;4975482;28;20247;-84
2023/03/08 05:05:49;;;;;;;5.60;2.37;;;3.90;99.90;;;;;;5007156;28;20107;-86
2023/03/08 05:08:15;;;;;;;6.20;2.80;;;3.80;99.90;;;;;;5010197;28;20033;-83
2023/03/08 05:10:47;;;;;;;6.70;3.10;;;3.80;99.90;;;;;;4994199;28;20035;-86
2023/03/08 05:13:13;;;;;;;6.70;3.28;;;3.80;99.90;;;;;;5002283;28;20030;-86
2023/03/08 05:15:39;;;;;;;6.93;3.23;;;3.80;99.90;;;;;;5006961;28;20015;-87
2023/03/08 05:18:05;;;;;;;8.80;3.65;;;3.80;99.90;;;;;;4991558;28;20029;-83
2023/03/08 05:20:30;;;;;;;8.82;3.63;;;3.80;99.90;;;;;;4982762;28;20150;-86
2023/03/08 05:22:56;;;;;;;8.47;4.23;;;3.80;99.90;;;;;;4971698;28;20664;-83
2023/03/08 05:25:22;;;;;;;8.50;3.83;;;3.80;99.90;;;;;;4997182;28;20441;-83
2023/03/08 05:27:48;;;;;;;6.47;3.45;;;3.70;99.90;;;;;;5006976;28;20532;-86
2023/03/08 05:30:14;;;;;;;6.87;3.30;;;3.70;99.90;;;;;;5002619;28;20554;-85
2023/03/08 05:32:40;;;;;;;5.65;2.90;;;3.70;99.90;;;;;;4994698;28;20026;-86
2023/03/08 05:35:06;;;;;;;5.80;2.83;;;3.60;99.90;;;;;;4998815;28;20026;-86
2023/03/08 05:37:32;;;;;;;5.45;2.55;;;3.60;99.90;;;;;;4986327;28;20419;-84
2023/03/08 05:39:57;;;;;;;5.70;2.78;;;3.60;99.90;;;;;;5007373;28;20024;-86
2023/03/08 05:42:23;;;;;;;4.60;2.40;;;3.60;99.90;;;;;;4995169;28;20052;-83
2023/03/08 05:44:49;;;;;;;4.35;2.13;;;3.60;99.90;;;;;;4988491;28;20025;-86
2023/03/08 05:47:15;;;;;;;4.70;2.40;;;3.60;99.90;;;;;;4994427;28;20026;-83
2023/03/08 05:49:41;;;;;;;4.20;1.90;;;3.50;99.90;;;;;;4965330;28;20037;-84
2023/03/08 05:52:06;;;;;;;4.23;1.90;;;3.60;99.90;;;;;;4974862;28;20064;-84
2023/03/08 05:54:32;;;;;;;4.82;2.30;;;3.60;99.90;;;;;;4994166;28;20057;-84
2023/03/08 05:56:58;;;;;;;4.03;2.08;;;3.50;99.90;;;;;;4995423;28;20025;-84
2023/03/08 05:59:25;;;;;;;4.80;2.30;;;3.50;99.90;;;;;;4999612;28;20286;-83
2023/03/08 06:01:51;;;;;;;4.05;2.13;;;3.50;99.90;;;;;;4953936;28;20341;-82
2023/03/08 06:04:17;;;;;;;4.32;2.33;;;3.60;99.90;;;;;;4953619;28;20025;-83
2023/03/08 06:06:42;;;;;;;4.20;2.00;;;3.50;99.90;;;;;;4991954;28;20030;-83
2023/03/08 06:09:08;;;;;;;4.53;2.17;;;3.50;99.90;;;;;;4983423;28;20029;-84
2023/03/08 06:11:34;;;;;;;5.20;2.20;;;3.50;99.90;;;;;;5024050;28;20247;-83
2023/03/08 06:13:59;;;;;;;4.00;2.10;;;3.50;99.90;;;;;;4988029;28;20018;-81
2023/03/08 06:16:25;;;;;;;5.60;2.80;;;3.50;99.90;;;;;;4970982;28;20493;-84
2023/03/08 06:18:51;;;;;;;5.38;2.90;;;3.50;99.90;;;;;;5032017;28;20418;-83
2023/03/08 06:21:20;;;;;;;5.20;2.50;;;3.50;99.90;;;;;;4958536;28;20021;-83
2023/03/08 06:23:46;;;;;;;4.53;2.30;;;3.50;99.90;;;;;;4991718;28;20045;-82
2023/03/08 06:26:12;;;;;;;5.78;2.50;;;3.50;99.90;;;;;;4985470;28;20148;-83
2023/03/08 06:28:41;;;;;;;4.93;2.42;;;3.60;99.90;;;;;;4993807;28;20025;-82
2023/03/08 06:31:11;;;;;;;3.60;1.80;;;3.60;99.90;;;;;;4989093;28;20061;-83
2023/03/08 06:33:36;;;;;;;5.68;2.90;;;3.60;99.90;;;;;;4990485;28;20065;-82
2023/03/08 06:36:02;;;;;;;4.75;2.13;;;3.60;99.90;;;;;;4971565;28;20053;-81
2023/03/08 06:38:31;;;;;;;4.07;2.20;;;3.60;99.90;;;;;;4992942;28;20401;-82
2023/03/08 06:40:57;;;;;;;4.75;2.30;;;3.60;99.90;;;;;;4991782;28;20034;-81
2023/03/08 06:43:24;;;;;;;3.63;2.00;;;3.50;99.90;;;;;;4983946;28;20072;-82
2023/03/08 06:45:50;;;;;;;4.55;2.35;;;3.50;99.90;;;;;;5005517;28;21106;-81
2023/03/08 06:48:16;;;;;;;3.72;2.15;;;3.50;99.90;;;;;;4983515;28;20026;-81
2023/03/08 06:50:41;;;;;;;4.45;2.45;;;3.50;99.90;;;;;;4975002;28;20514;-84
2023/03/08 06:53:08;;;;;;;4.47;2.20;;;3.50;99.90;;;;;;4988350;28;20030;-82
2023/03/08 06:55:35;;;;;;;3.72;2.10;;;3.50;99.90;;;;;;4965114;28;20032;-84
2023/03/08 06:58:01;;;;;;;4.63;2.30;;;3.50;99.90;;;;;;4966672;28;20701;-82
2023/03/08 07:00:27;;;;;;;3.83;2.00;;;3.50;99.90;;;;;;4996537;28;20026;-82
2023/03/08 07:02:53;;;;;;;3.40;1.77;;;3.50;99.90;;;;;;4980936;28;23541;-84
2023/03/08 07:05:19;;;;;;;3.30;1.88;;;3.50;99.90;;;;;;5029083;28;20546;-80
2023/03/08 07:07:45;;;;;;;4.18;2.28;;;3.50;99.90;;;;;;4963009;28;20040;-83
2023/03/08 07:10:15;;;;;;;4.07;2.20;;;3.50;99.90;;;;;;4983168;28;20036;-80
2023/03/08 07:12:47;;;;;;;3.92;2.30;;;3.50;99.90;;;;;;4987181;28;20038;-82
2023/03/08 07:15:14;;;;;;;5.43;2.40;;;3.50;99.90;;;;;;4992866;28;20033;-82
2023/03/08 07:17:41;;;;;;;5.47;3.20;;;3.50;99.90;;;;;;4988946;28;20025;-81
2023/03/08 07:20:07;;;;;;;4.97;2.60;;;3.50;99.90;;;;;;4977418;28;20076;-83
2023/03/08 07:22:33;;;;;;;4.10;2.50;;;3.50;99.90;;;;;;4974034;28;20049;-83
2023/03/08 07:24:59;;;;;;;3.95;2.13;;;3.50;99.90;;;;;;4975802;28;20230;-82
2023/03/08 07:27:25;;;;;;;3.65;2.10;;;3.50;99.90;;;;;;4971346;28;20038;-80
2023/03/08 07:29:51;;;;;;;3.60;1.90;;;3.50;99.90;;;;;;4988893;28;20030;-82
2023/03/08 07:32:17;;;;;;;4.65;2.40;;;3.60;99.90;;;;;;4992699;28;20083;-82
2023/03/08 07:34:44;;;;;;;3.85;2.30;;;3.60;99.90;;;;;;4978470;28;20311;-83
2023/03/08 07:37:14;;;;;;;4.07;2.20;;;3.60;99.90;;;;;;4986683;28;20087;-80
2023/03/08 07:39:40;;;;;;;3.03;1.70;;;3.60;99.90;;;;;;4991173;28;20119;-82
2023/03/08 07:42:06;;;;;;;3.40;2.00;;;3.60;99.90;;;;;;4957365;28;20277;-82
2023/03/08 07:44:32;;;;;;;4.78;2.40;;;3.60;99.90;;;;;;5008932;28;20033;-83
2023/03/08 07:46:58;;;;;;;3.83;2.30;;;3.60;99.90;;;;;;4993279;28;20247;-82
2023/03/08 07:49:23;;;;;;;4.75;2.40;;;3.60;99.90;;;;;;4992948;28;20028;-80
2023/03/08 07:51:52;;;;;;;4.30;2.30;;;3.60;99.90;;;;;;4976893;28;20055;-81
2023/03/08 07:54:18;;;;;;;4.60;2.50;;;3.70;99.90;;;;;;4972519;28;20026;-82
2023/03/08 07:56:43;;;;;;;4.50;2.60;;;3.70;99.90;;;;;;4986608;28;20097;-81
2023/03/08 07:59:09;;;;;;;4.35;2.13;;;3.60;99.90;;;;;;5007526;28;20711;-83
2023/03/08 08:01:35;;;;;;;3.22;1.80;;;3.70;99.90;;;;;;4974441;28;20036;-82
2023/03/08 08:04:01;;;;;;;3.80;2.13;;;3.70;99.90;;;;;;4988727;28;20026;-81
2023/03/08 08:06:27;;;;;;;4.47;2.35;;;3.70;99.90;;;;;;4976907;28;20080;-83
2023/03/08 08:08:54;;;;;;;4.17;2.50;;;3.70;99.90;;;;;;4970070;28;20430;-81
2023/03/08 08:11:20;;;;;;;3.78;1.98;;;3.70;99.90;;;;;;4973836;28;20030;-83
2023/03/08 08:13:46;;;;;;;3.90;2.42;;;3.70;99.90;;;;;;4994931;28;20042;-82
2023/03/08 08:16:13;;;;;;;3.47;2.00;;;3.80;99.90;;;;;;4974595;28;20068;-83
2023/03/08 08:18:39;;;;;;;3.30;2.07;;;3.70;99.90;;;;;;4970188;28;20171;-82
2023/03/08 08:21:08;;;;;;;3.25;1.90;;;3.80;99.90;;;;;;4990908;28;20025;-84
2023/03/08 08:23:35;;;;;;;4.45;2.50;;;3.80;99.90;;;;;;4984875;28;20026;-82
2023/03/08 08:26:04;;;;;;;4.80;2.80;;;3.80;99.90;;;;;;4975728;28;20480;-83
2023/03/08 08:28:30;;;;;;;4.43;2.50;;;3.80;99.90;;;;;;4983455;28;20222;-83
2023/03/08 08:31:01;;;;;;;4.77;2.60;;;3.80;99.90;;;;;;4984392;28;20557;-83
2023/03/08 08:33:28;;;;;;;4.50;2.80;;;3.80;99.90;;;;;;4974599;28;20021;-83
2023/03/08 08:35:54;;;;;;;4.50;2.47;;;3.80;99.90;;;;;;4992477;28;20026;-82
2023/03/08 08:38:19;;;;;;;4.20;2.50;;;3.90;99.90;;;;;;4963354;28;20052;-85
2023/03/08 08:40:45;;;;;;;3.92;2.28;;;3.90;99.90;;;;;;4958158;28;20114;-83
2023/03/08 08:43:11;;;;;;;5.28;3.00;;;3.90;99.90;;;;;;4970189;28;20449;-85
2023/03/08 08:45:45;;;;;;;5.03;2.77;;;3.90;99.90;;;;;;4995480;28;20030;-84
2023/03/08 08:48:12;;;;;;;4.38;2.65;;;3.90;99.90;;;;;;4982191;28;20033;-86
2023/03/08 08:50:39;;;;;;;5.35;2.75;;;3.90;99.90;;;;;;5008421;28;20146;-84
2023/03/08 08:53:05;;;;;;;5.53;2.78;;;4.00;99.90;;;;;;4984391;28;20028;-85
2023/03/08 08:55:31;;;;;;;4.00;2.47;;;4.00;99.90;;;;;;4970202;28;20075;-83
2023/03/08 08:57:57;;;;;;;5.40;3.00;;;4.00;99.90;;;;;;4953138;28;20622;-86
2023/03/08 09:00:23;;;;;;;4.00;2.40;;;4.10;99.90;;;;;;4999876;28;20303;-83
2023/03/08 09:02:49;;;;;;;5.03;2.50;;;4.10;99.90;;;;;;4980470;28;20060;-82
2023/03/08 09:05:15;;;;;;;5.45;3.00;;;4.10;99.90;;;;;;4975526;28;20061;-84
2023/03/08 09:07:41;;;;;;;4.75;2.80;;;4.20;99.90;;;;;;4985199;28;20057;-83
2023/03/08 09:10:07;;;;;;;4.90;2.90;;;4.20;99.90;;;;;;4998714;28;20057;-86
2023/03/08 09:12:33;;;;;;;4.85;2.92;;;4.20;99.90;;;;;;5005030;28;20251;-84
2023/03/08 09:14:59;;;;;;;4.45;2.50;;;4.20;99.90;;;;;;4987680;28;20497;-86
2023/03/08 09:17:25;;;;;;;4.53;2.57;;;4.30;99.90;;;;;;4998312;28;20564;-83
2023/03/08 09:19:50;;;;;;;4.65;2.63;;;4.30;99.90;;;;;;5001874;28;20040;-83
2023/03/08 09:22:17;;;;;;;6.30;3.47;;;4.40;99.90;;;;;;4989296;28;20032;-83
2023/03/08 09:24:47;;;;;;;6.97;3.65;;;4.40;99.90;;;;;;4988239;28;20029;-84
2023/03/08 09:27:13;;;;;;;5.35;2.85;;;4.40;99.90;;;;;;4951890;28;20357;-83
2023/03/08 09:29:38;;;;;;;5.18;2.78;;;4.50;99.90;;;;;;4968314;28;20035;-81
2023/03/08 09:32:05;;;;;;;6.23;3.37;;;4.50;99.90;;;;;;4995273;28;20108;-85
2023/03/08 09:34:30;;;;;;;6.82;3.45;;;4.50;99.90;;;;;;4983656;28;20285;-83
2023/03/08 09:36:56;;;;;;;6.43;3.22;;;4.50;99.90;;;;;;4976261;28;20065;-85
2023/03/08 09:39:23;;;;;;;5.97;3.27;;;4.60;99.90;;;;;;4983366;28;20056;-84
2023/03/08 09:42:00;;;;;;;7.18;3.90;;;4.60;99.90;;;;;;4986618;28;20030;-83
2023/03/08 09:45:00;;;;;;;6.07;3.70;;;4.60;99.90;;;;;;4986032;28;21358;-82
2023/03/08 09:47:45;;;;;;;6.68;3.53;;;4.60;99.90;;;;;;4990906;28;20303;-82
2023/03/08 09:50:11;;;;;;;6.40;3.50;;;4.70;99.90;;;;;;4992979;28;20037;-83
2023/03/08 09:53:23;;;;;;;7.83;4.30;;;4.70;99.90;;;;;;4968112;28;20026;-83
2023/03/08 09:56:23;;;;;;;7.68;4.13;;;4.80;99.90;;;;;;4965056;28;20104;-83
2023/03/08 09:59:01;;;;;;;7.35;4.20;;;4.80;99.90;;;;;;4973833;28;20278;-83
2023/03/08 10:02:12;;;;;;;6.87;3.90;;;4.90;99.90;;;;;;4987581;28;20352;-82
2023/03/08 10:04:51;;;;;;;7.32;4.05;;;4.90;99.90;;;;;;4992873;28;20254;-84
2023/03/08 10:07:23;;;;;;;7.93;4.25;;;5.00;99.90;;;;;;4981975;28;20101;-81
2023/03/08 10:10:15;;;;;;;7.57;4.50;;;5.00;99.90;;;;;;4972495;28;20694;-83
2023/03/08 10:13:06;;;;;;;7.72;4.00;;;5.10;99.90;;;;;;4963609;28;20029;-84
2023/03/08 10:15:37;;;;;;;6.80;3.80;;;5.10;99.90;;;;;;4956025;28;20479;-82
2023/03/08 10:18:20;;;;;;;6.97;3.67;;;5.20;99.90;;;;;;4979628;28;20148;-81
2023/03/08 10:20:47;;;;;;;7.90;4.20;;;5.30;99.90;;;;;;4986000;28;20586;-84
2023/03/08 10:23:19;;;;;;;6.60;3.60;;;5.30;99.90;;;;;;4975753;28;20036;-82
2023/03/08 10:25:46;;;;;;;8.95;4.60;;;5.30;99.90;;;;;;5018447;28;20061;-84
2023/03/08 10:28:20;;;;;;;9.67;5.30;;;5.40;99.90;;;;;;5004579;28;20280;-81
2023/03/08 10:31:03;;;;;;;8.32;4.53;;;5.50;99.90;;;;;;4988818;28;20033;-83
2023/03/08 10:33:34;;;;;;;7.95;4.40;;;5.50;99.90;;;;;;5004800;28;20091;-81
2023/03/08 10:36:08;;;;;;;7.60;4.28;;;5.60;99.90;;;;;;4975812;28;20159;-81
2023/03/08 10:38:36;;;;;;;7.97;4.45;;;5.60;99.90;;;;;;5008310;28;20467;-81
2023/03/08 10:41:15;;;;;;;6.07;3.33;;;5.70;99.90;;;;;;4982042;28;20118;-81
2023/03/08 10:43:45;;;;;;;8.75;5.00;;;5.70;99.90;;;;;;4993374;28;20030;-83
2023/03/08 10:46:14;;;;;;;11.20;6.00;;;5.80;99.90;;;;;;4952534;28;20215;-81
2023/03/08 10:48:41;;;;;;;9.48;5.00;;;5.90;99.90;;;;;;4982838;28;20060;-82
2023/03/08 10:51:15;;;;;;;8.63;4.43;;;5.90;99.90;;;;;;4993662;28;20097;-82
2023/03/08 10:53:53;;;;;;;8.57;4.63;;;6.00;99.90;;;;;;4976582;28;20025;-82
2023/03/08 10:56:43;;;;;;;7.80;4.18;;;6.00;99.90;;;;;;4984380;28;20578;-83
2023/03/08 10:59:26;;;;;;;6.90;3.95;;;6.10;99.90;;;;;;5023820;28;20426;-80
2023/03/08 11:01:55;;;;;;;8.00;4.53;;;6.10;99.90;;;;;;4967651;28;20030;-83
2023/03/08 11:04:23;;;;;;;8.57;4.60;;;6.20;99.90;;;;;;4984388;28;20053;-81
2023/03/08 11:06:49;;;;;;;7.70;4.13;;;6.20;99.90;;;;;;5009463;28;20033;-80
2023/03/08 11:09:28;;;;;;;11.88;6.70;;;6.20;99.90;;;;;;4973451;28;20052;-82
2023/03/08 11:11:58;;;;;;;9.50;5.20;;;6.20;99.90;;;;;;4999890;28;20033;-81
2023/03/08 11:14:26;;;;;;;10.18;5.97;;;6.10;99.90;;;;;;4991024;28;20522;-80
2023/03/08 11:17:27;;;;;;;9.55;5.55;;;6.10;99.90;;;;;;4985988;28;20356;-80
2023/03/08 11:20:09;;;;;;;9.07;4.67;;;6.00;99.90;;;;;;4979402;28;20033;-81
2023/03/08 11:22:50;;;;;;;9.75;5.45;;;6.00;99.90;;;;;;4989728;28;20533;-82
2023/03/08 11:25:38;;;;;;;10.38;5.70;;;6.00;99.90;;;;;;4987388;28;20098;-82
2023/03/08 11:28:27;;;;;;;9.38;5.18;;;6.00;99.90;;;;;;5000126;28;20046;-83
2023/03/08 11:31:13;;;;;;;10.05;5.80;;;5.90;99.90;;;;;;4985101;28;20056;-81
2023/03/08 11:33:45;;;;;;;12.73;6.60;;;6.00;99.90;;;;;;5015078;28;20307;-81
2023/03/08 11:36:23;;;;;;;9.95;5.65;;;6.00;99.90;;;;;;4998197;28;20483;-83
2023/03/08 11:39:18;;;;;;;11.05;6.20;;;6.00;99.90;;;;;;4995927;28;20423;-80
2023/03/08 11:42:19;;;;;;;10.18;5.50;;;6.00;99.90;;;;;;4966456;28;20075;-80
2023/03/08 11:45:09;;;;;;;7.95;4.68;;;6.00;99.90;;;;;;5002817;28;20522;-80
2023/03/08 11:47:38;;;;;;;9.70;5.20;;;6.00;99.90;;;;;;4981027;28;20112;-81
2023/03/08 11:50:37;;;;;;;10.18;5.75;;;6.10;99.90;;;;;;4994763;28;20040;-82
2023/03/08 11:53:14;;;;;;;9.90;5.82;;;6.10;99.90;;;;;;4977977;28;20128;-81
2023/03/08 11:56:02;;;;;;;10.02;5.60;;;6.10;99.90;;;;;;4992854;28;20554;-80
2023/03/08 11:58:52;;;;;;;10.00;5.55;;;6.20;99.90;;;;;;4980938;28;20030;-80
2023/03/08 12:01:25;;;;;;;8.43;4.67;;;6.10;99.90;;;;;;4994313;28;20032;-80
2023/03/08 12:04:12;;;;;;;7.70;4.35;;;6.20;99.90;;;;;;4979769;28;20196;-80
2023/03/08 12:06:40;;;;;;;9.55;4.68;;;6.20;99.90;;;;;;5002178;28;20026;-81
2023/03/08 12:09:11;;;;;;;9.32;4.93;;;6.20;99.90;;;;;;4984669;28;20207;-80
2023/03/08 12:11:41;;;;;;;10.32;5.43;;;6.20;99.90;;;;;;4978396;28;20149;-81
2023/03/08 12:14:17;;;;;;;6.80;3.67;;;6.30;99.90;;;;;;4991085;28;20021;-80
2023/03/08 12:17:17;;;;;;;7.78;4.43;;;6.30;99.90;;;;;;5005494;28;20042;-81
2023/03/08 12:19:48;;;;;;;10.35;5.05;;;6.30;99.90;;;;;;4949814;28;20041;-81
2023/03/08 12:22:37;;;;;;;8.18;4.88;;;6.40;99.90;;;;;;4993936;28;20040;-80
2023/03/08 12:25:15;;;;;;;8.48;4.80;;;6.30;99.90;;;;;;5005434;28;20184;-79
2023/03/08 12:27:49;;;;;;;8.37;4.40;;;6.30;99.90;;;;;;4976264;28;20400;-81
2023/03/08 12:30:15;;;;;;;7.63;4.07;;;6.40;99.90;;;;;;4977884;28;20060;-79
2023/03/08 12:32:42;;;;;;;6.63;3.90;;;6.40;99.90;;;;;;4975096;28;20037;-80
2023/03/08 12:35:23;;;;;;;8.13;4.40;;;6.40;99.90;;;;;;4980723;28;20613;-79
2023/03/08 12:38:18;;;;;;;8.15;4.75;;;6.40;99.90;;;;;;4973440;28;20056;-81
2023/03/08 12:40:46;;;;;;;8.80;4.63;;;6.40;99.90;;;;;;4980219;28;20064;-80
2023/03/08 12:43:18;;;;;;;6.85;3.58;;;6.40;99.90;;;;;;4982797;28;20037;-77
2023/03/08 12:46:05;;;;;;;8.02;4.22;;;6.40;99.90;;;;;;4974328;28;20041;-80
2023/03/08 12:48:43;;;;;;;7.03;3.90;;;6.30;99.90;;;;;;5010859;28;20129;-81
2023/03/08 12:51:13;;;;;;;7.95;4.32;;;6.30;99.90;;;;;;4987064;28;20109;-78
2023/03/08 12:53:47;;;;;;;7.90;4.63;;;6.30;99.90;;;;;;4999044;28;20052;-81
2023/03/08 12:56:35;;;;;;;6.00;3.42;;;6.30;99.90;;;;;;5013392;28;20037;-78
2023/03/08 12:59:08;;;;;;;6.97;3.70;;;6.20;99.90;;;;;;4988481;28;20768;-79
2023/03/08 13:01:43;;;;;;;9.13;4.57;;;6.20;99.90;;;;;;5015183;28;20044;-79
2023/03/08 13:04:32;;;;;;;8.27;4.35;;;6.20;99.90;;;;;;5011327;28;20026;-79
2023/03/08 13:07:16;;;;;;;9.15;5.03;;;6.20;99.90;;;;;;4963730;28;20029;-78
2023/03/08 13:09:45;;;;;;;7.93;4.07;;;6.20;99.90;;;;;;4988365;28;20081;-79